createdAt,value
2023-03-19T00:01:06.519Z,17.02
2023-03-19T00:03:36.954Z,18.45
2023-03-19T00:06:05.766Z,15.68
2023-03-19T00:08:34.122Z,15.45
2023-03-19T00:11:08.503Z,16.55
2023-03-19T00:13:37.057Z,15.82
2023-03-19T00:16:06.251Z,15.90
2023-03-19T00:18:36.386Z,15.70
2023-03-19T00:21:05.080Z,15.25
2023-03-19T00:23:33.535Z,15.63
2023-03-19T00:26:01.925Z,16.17
2023-03-19T00:28:30.271Z,17.02
2023-03-19T00:30:59.237Z,20.83
2023-03-19T00:33:27.657Z,20.35
2023-03-19T00:35:58.826Z,22.38
2023-03-19T00:38:27.237Z,21.42
2023-03-19T00:40:55.613Z,20.83
2023-03-19T00:43:24.239Z,20.17
2023-03-19T00:45:52.759Z,23.48
2023-03-19T00:48:21.398Z,22.92
2023-03-19T00:50:50.141Z,27.40
2023-03-19T00:53:20.673Z,24.05
2023-03-19T00:55:49.221Z,22.50
2023-03-19T00:58:17.709Z,24.92
2023-03-19T01:00:46.221Z,22.00
2023-03-19T01:03:15.987Z,23.40
2023-03-19T01:05:44.378Z,24.63
2023-03-19T01:08:14.419Z,22.80
2023-03-19T01:10:44.909Z,26.38
2023-03-19T01:13:13.885Z,26.42
2023-03-19T01:15:44.733Z,24.85
2023-03-19T01:18:14.038Z,27.65
2023-03-19T01:20:43.253Z,27.88
2023-03-19T01:23:11.852Z,25.65
2023-03-19T01:25:41.599Z,29.70
2023-03-19T01:28:11.311Z,25.58
2023-03-19T01:30:41.765Z,25.90
2023-03-19T01:33:30.840Z,27.67
2023-03-19T01:36:03.631Z,24.75
2023-03-19T01:38:39.641Z,28.38
2023-03-19T01:41:14.366Z,25.90
2023-03-19T01:43:44.147Z,23.85
2023-03-19T01:46:32.601Z,24.50
2023-03-19T01:49:21.569Z,23.50
2023-03-19T01:51:57.009Z,25.00
2023-03-19T01:54:33.962Z,26.27
2023-03-19T01:57:18.609Z,21.70
2023-03-19T02:00:10.757Z,23.50
2023-03-19T02:02:48.651Z,20.95
2023-03-19T02:05:39.300Z,20.95
2023-03-19T02:08:16.076Z,20.15
2023-03-19T02:10:48.066Z,19.63
2023-03-19T02:13:17.123Z,17.45
2023-03-19T02:15:47.084Z,16.95
2023-03-19T02:18:16.131Z,18.58
2023-03-19T02:20:52.373Z,17.38
2023-03-19T02:23:34.324Z,18.30
2023-03-19T02:26:10.481Z,18.25
2023-03-19T02:28:42.373Z,18.88
2023-03-19T02:31:12.938Z,15.95
2023-03-19T02:33:41.781Z,17.23
2023-03-19T02:36:14.850Z,18.30
2023-03-19T02:38:45.189Z,20.83
2023-03-19T02:41:14.976Z,18.30
2023-03-19T02:43:44.358Z,23.73
2023-03-19T02:46:14.726Z,22.02
2023-03-19T02:48:43.948Z,21.15
2023-03-19T02:51:13.517Z,21.98
2023-03-19T02:53:42.036Z,24.35
2023-03-19T02:56:10.652Z,24.02
2023-03-19T02:58:40.668Z,22.05
2023-03-19T03:01:09.335Z,23.42
2023-03-19T03:03:37.779Z,23.13
2023-03-19T03:06:07.035Z,25.42
2023-03-19T03:08:36.765Z,26.27
2023-03-19T03:11:05.592Z,29.20
2023-03-19T03:13:33.970Z,26.83
2023-03-19T03:16:05.437Z,26.13
2023-03-19T03:18:33.840Z,30.65
2023-03-19T03:21:02.241Z,30.92
2023-03-19T03:23:30.624Z,34.55
2023-03-19T03:26:00.782Z,31.60
2023-03-19T03:28:29.465Z,33.00
2023-03-19T03:31:01.060Z,34.65
2023-03-19T03:33:31.042Z,38.22
2023-03-19T03:35:59.765Z,34.85
2023-03-19T03:38:28.704Z,36.88
2023-03-19T03:40:57.120Z,41.33
2023-03-19T03:43:27.677Z,39.90
2023-03-19T03:45:56.299Z,40.35
2023-03-19T03:48:25.120Z,39.63
2023-03-19T03:50:54.882Z,40.38
2023-03-19T03:53:27.862Z,39.97
2023-03-19T03:55:56.311Z,39.88
2023-03-19T03:58:26.944Z,40.53
2023-03-19T04:00:56.845Z,38.72
2023-03-19T04:03:27.206Z,42.55
2023-03-19T04:05:57.321Z,43.53
2023-03-19T04:08:25.700Z,44.60
2023-03-19T04:10:54.152Z,45.10
2023-03-19T04:13:22.649Z,45.95
2023-03-19T04:15:53.785Z,45.70
2023-03-19T04:18:23.706Z,50.00
2023-03-19T04:20:53.090Z,48.47
2023-03-19T04:23:22.799Z,52.58
2023-03-19T04:25:51.683Z,48.70
2023-03-19T04:28:20.304Z,54.58
2023-03-19T04:30:48.776Z,55.90
2023-03-19T04:33:17.539Z,51.17
2023-03-19T04:35:46.318Z,60.35
2023-03-19T04:38:14.823Z,56.45
2023-03-19T04:40:44.534Z,54.10
2023-03-19T04:43:13.136Z,58.25
2023-03-19T04:45:45.776Z,56.38
2023-03-19T04:48:14.186Z,55.25
2023-03-19T04:50:42.875Z,56.42
2023-03-19T04:53:11.472Z,55.00
2023-03-19T04:55:40.234Z,56.70
2023-03-19T04:58:16.420Z,52.67
2023-03-19T05:03:20.540Z,54.63
2023-03-19T05:05:49.436Z,60.75
2023-03-19T05:08:18.028Z,57.08
2023-03-19T05:10:47.285Z,60.65
2023-03-19T05:13:18.073Z,60.38
2023-03-19T05:15:56.055Z,67.68
2023-03-19T05:18:24.825Z,60.55
2023-03-19T05:20:54.667Z,66.32
2023-03-19T05:23:24.481Z,68.03
2023-03-19T05:26:03.935Z,73.78
2023-03-19T05:28:52.116Z,72.80
2023-03-19T05:31:26.669Z,76.00
2023-03-19T05:33:56.261Z,76.75
2023-03-19T05:36:25.107Z,97.40
2023-03-19T05:38:59.817Z,90.95
2023-03-19T05:41:34.850Z,86.75
2023-03-19T05:44:08.110Z,82.93
2023-03-19T05:46:46.611Z,76.05
2023-03-19T05:49:15.637Z,78.13
2023-03-19T05:51:44.046Z,76.63
2023-03-19T05:54:12.851Z,78.20
2023-03-19T05:56:50.674Z,80.30
2023-03-19T05:59:35.931Z,87.47
2023-03-19T06:02:17.709Z,87.30
2023-03-19T06:04:46.816Z,84.75
2023-03-19T06:07:16.704Z,82.55
2023-03-19T06:09:45.405Z,86.07
2023-03-19T06:12:14.565Z,93.65
2023-03-19T06:15:19.696Z,94.38
2023-03-19T06:17:57.873Z,94.95
2023-03-19T06:20:26.491Z,97.25
2023-03-19T06:22:54.982Z,95.90
2023-03-19T06:25:24.071Z,94.70
2023-03-19T06:27:53.194Z,102.28
2023-03-19T06:30:29.380Z,96.65
2023-03-19T06:33:00.841Z,95.55
2023-03-19T06:35:30.159Z,91.93
2023-03-19T06:37:58.621Z,88.68
2023-03-19T06:40:27.040Z,84.70
2023-03-19T06:42:55.444Z,87.80
2023-03-19T06:45:23.993Z,77.65
2023-03-19T06:47:53.858Z,78.57
2023-03-19T06:50:22.389Z,78.30
2023-03-19T06:52:50.791Z,78.97
2023-03-19T06:55:20.502Z,75.47
2023-03-19T06:57:51.238Z,75.10
2023-03-19T07:02:49.457Z,79.93
2023-03-19T07:05:19.328Z,73.05
2023-03-19T07:07:47.743Z,79.07
2023-03-19T07:10:16.120Z,75.55
2023-03-19T07:12:44.422Z,67.43
2023-03-19T07:15:13.865Z,68.70
2023-03-19T07:17:42.345Z,64.13
2023-03-19T07:20:12.926Z,65.35
2023-03-19T07:22:42.684Z,63.38
2023-03-19T07:25:11.755Z,74.90
2023-03-19T07:27:40.182Z,65.93
2023-03-19T07:30:10.965Z,66.18
2023-03-19T07:35:10.450Z,68.43
2023-03-19T07:37:38.970Z,71.07
2023-03-19T07:40:10.987Z,76.45
2023-03-19T07:42:39.377Z,75.28
2023-03-19T07:45:09.564Z,77.35
2023-03-19T07:47:37.981Z,80.18
2023-03-19T07:50:07.898Z,80.40
2023-03-19T07:52:36.364Z,80.50
2023-03-19T07:55:05.382Z,79.10
2023-03-19T07:57:35.146Z,78.90
2023-03-19T08:00:03.674Z,81.50
2023-03-19T08:02:42.804Z,99.38
2023-03-19T08:05:12.348Z,97.50
2023-03-19T08:07:41.168Z,90.88
2023-03-19T08:10:11.508Z,93.82
2023-03-19T08:12:42.183Z,107.85
2023-03-19T08:15:12.837Z,97.13
2023-03-19T08:20:16.344Z,85.22
2023-03-19T08:22:44.977Z,90.63
2023-03-19T08:25:14.173Z,90.20
2023-03-19T08:27:51.296Z,102.57
2023-03-19T08:30:22.446Z,98.63
2023-03-19T08:32:51.221Z,95.32
2023-03-19T08:35:19.731Z,98.15
2023-03-19T08:37:48.217Z,98.38
2023-03-19T08:40:16.544Z,97.97
2023-03-19T08:42:46.402Z,89.07
2023-03-19T08:45:16.301Z,83.22
2023-03-19T08:47:45.381Z,82.95
2023-03-19T08:50:13.990Z,80.57
2023-03-19T08:52:42.766Z,86.90
2023-03-19T08:55:11.798Z,85.00
2023-03-19T08:57:40.230Z,76.43
2023-03-19T09:00:12.501Z,77.20
2023-03-19T09:02:40.860Z,64.63
2023-03-19T09:05:10.146Z,58.95
2023-03-19T09:07:38.520Z,64.05
2023-03-19T09:10:08.418Z,63.92
2023-03-19T09:12:36.918Z,56.38
2023-03-19T09:15:06.693Z,46.83
2023-03-19T09:17:36.999Z,44.90
2023-03-19T09:20:07.447Z,54.35
2023-03-19T09:22:35.781Z,51.90
2023-03-19T09:25:04.552Z,54.53
2023-03-19T09:27:33.065Z,54.22
2023-03-19T09:30:01.464Z,58.88
2023-03-19T09:32:30.093Z,59.35
2023-03-19T09:34:59.750Z,56.65
2023-03-19T09:37:28.182Z,64.57
2023-03-19T09:39:57.470Z,62.90
2023-03-19T09:42:46.078Z,58.97
2023-03-19T09:45:18.115Z,60.17
2023-03-19T09:47:48.667Z,65.57
2023-03-19T09:50:22.431Z,66.78
2023-03-19T09:52:59.475Z,64.30
2023-03-19T09:55:41.771Z,58.50
2023-03-19T09:58:17.171Z,56.97
2023-03-19T10:00:50.623Z,59.55
2023-03-19T10:03:44.952Z,63.28
2023-03-19T10:06:29.360Z,63.58
2023-03-19T10:09:19.700Z,58.08
2023-03-19T10:12:08.583Z,53.05
2023-03-19T10:15:05.738Z,54.33
2023-03-19T10:17:38.177Z,58.53
2023-03-19T10:20:14.363Z,61.38
2023-03-19T10:22:50.294Z,59.30
2023-03-19T10:25:24.840Z,62.15
2023-03-19T10:28:01.477Z,61.50
2023-03-19T10:30:34.243Z,61.75
2023-03-19T10:33:18.378Z,62.03
2023-03-19T10:35:49.572Z,61.90
2023-03-19T10:38:24.461Z,55.50
2023-03-19T10:41:07.174Z,60.50
2023-03-19T10:43:35.928Z,68.82
2023-03-19T10:46:04.824Z,58.78
2023-03-19T10:48:34.760Z,58.35
2023-03-19T10:51:06.668Z,66.93
2023-03-19T10:53:38.823Z,66.40
2023-03-19T10:56:16.786Z,63.88
2023-03-19T10:58:59.222Z,57.90
2023-03-19T11:01:35.147Z,57.03
2023-03-19T11:04:13.284Z,56.70
2023-03-19T11:06:42.000Z,56.13
2023-03-19T11:09:20.811Z,60.20
2023-03-19T11:11:51.167Z,67.82
2023-03-19T11:14:23.290Z,64.13
2023-03-19T11:16:57.658Z,65.38
2023-03-19T11:19:29.605Z,64.95
2023-03-19T11:22:10.006Z,60.95
2023-03-19T11:24:42.595Z,65.55
2023-03-19T11:27:12.509Z,67.30
2023-03-19T11:29:44.776Z,63.22
2023-03-19T11:32:45.853Z,69.43
2023-03-19T11:35:21.679Z,71.00
2023-03-19T11:37:57.722Z,73.78
2023-03-19T11:40:43.271Z,64.90
2023-03-19T11:43:41.891Z,68.78
2023-03-19T11:46:28.028Z,67.75
2023-03-19T11:49:48.799Z,68.75
2023-03-19T11:52:26.491Z,77.28
2023-03-19T11:55:21.314Z,70.75
2023-03-19T11:58:14.252Z,74.10
2023-03-19T12:00:48.456Z,87.25
2023-03-19T12:03:56.116Z,74.90
2023-03-19T12:06:39.558Z,75.93
2023-03-19T12:09:22.832Z,75.60
2023-03-19T12:11:55.369Z,78.68
2023-03-19T12:14:44.287Z,73.72
2023-03-19T12:17:26.758Z,70.45
2023-03-19T12:20:24.227Z,62.08
2023-03-19T12:23:07.498Z,51.13
2023-03-19T12:25:54.109Z,50.20
2023-03-19T12:28:28.127Z,51.17
2023-03-19T12:31:31.059Z,48.67
2023-03-19T12:34:23.893Z,55.38
2023-03-19T12:37:08.519Z,51.53
2023-03-19T12:39:42.187Z,41.90
2023-03-19T12:42:18.808Z,44.70
2023-03-19T12:44:51.383Z,44.55
2023-03-19T12:47:26.381Z,44.50
2023-03-19T12:49:59.968Z,38.10
2023-03-19T12:52:35.292Z,38.63
2023-03-19T12:55:10.989Z,34.60
2023-03-19T12:57:45.707Z,37.70
2023-03-19T13:00:22.710Z,36.97
2023-03-19T13:03:00.923Z,34.67
2023-03-19T13:05:38.457Z,32.47
2023-03-19T13:08:16.885Z,32.47
2023-03-19T13:10:45.416Z,35.70
2023-03-19T13:13:34.024Z,34.17
2023-03-19T13:16:11.558Z,32.88
2023-03-19T13:18:52.869Z,34.97
2023-03-19T13:21:28.774Z,27.20
2023-03-19T13:24:09.795Z,29.52
2023-03-19T13:26:39.006Z,32.38
2023-03-19T13:29:18.041Z,30.80
2023-03-19T13:31:47.391Z,28.48
2023-03-19T13:34:27.610Z,27.73
2023-03-19T13:37:03.768Z,28.83
2023-03-19T13:39:35.656Z,22.88
2023-03-19T13:42:38.998Z,25.95
2023-03-19T13:45:31.845Z,24.42
2023-03-19T13:48:25.551Z,29.35
2023-03-19T13:51:03.176Z,45.97
2023-03-19T13:53:42.572Z,45.50
2023-03-19T13:56:28.654Z,34.75
2023-03-19T13:59:34.238Z,31.13
2023-03-19T14:02:04.252Z,25.88
2023-03-19T14:04:34.277Z,23.45
2023-03-19T14:07:19.517Z,22.25
2023-03-19T14:09:50.727Z,21.02
2023-03-19T14:12:33.078Z,23.45
2023-03-19T14:15:05.399Z,24.83
2023-03-19T14:17:36.192Z,27.80
2023-03-19T14:20:31.435Z,22.30
2023-03-19T14:23:23.821Z,21.10
2023-03-19T14:26:08.306Z,23.58
2023-03-19T14:28:50.255Z,18.25
2023-03-19T14:34:00.652Z,20.92
2023-03-19T14:36:30.368Z,19.60
2023-03-19T14:39:05.129Z,24.88
2023-03-19T14:41:38.018Z,23.33
2023-03-19T14:44:46.886Z,26.45
2023-03-19T14:47:42.971Z,23.70
2023-03-19T14:50:38.666Z,25.70
2023-03-19T14:53:17.157Z,21.98
2023-03-19T14:55:52.592Z,20.90
2023-03-19T14:58:22.191Z,18.52
2023-03-19T15:00:53.511Z,20.83
2023-03-19T15:03:31.596Z,20.38
2023-03-19T15:06:02.261Z,25.33
2023-03-19T15:08:33.614Z,34.85
2023-03-19T15:11:39.965Z,33.75
2023-03-19T15:14:52.929Z,31.58
2023-03-19T15:17:26.069Z,31.88
2023-03-19T15:19:57.448Z,32.33
2023-03-19T15:22:31.437Z,28.17
2023-03-19T15:25:08.118Z,32.08
2023-03-19T15:27:38.538Z,25.67
2023-03-19T15:30:22.473Z,30.10
2023-03-19T15:33:08.047Z,31.23
2023-03-19T15:35:39.279Z,40.60
2023-03-19T15:38:11.975Z,38.55
2023-03-19T15:40:42.641Z,37.47
2023-03-19T15:45:47.195Z,36.08
2023-03-19T15:48:21.670Z,34.55
2023-03-19T15:50:55.711Z,41.55
2023-03-19T15:53:27.056Z,36.70
2023-03-19T15:55:56.837Z,37.45
2023-03-19T15:58:30.890Z,42.30
2023-03-19T16:01:03.257Z,45.05
2023-03-19T16:03:38.610Z,53.70
2023-03-19T16:06:14.429Z,50.40
2023-03-19T16:08:49.218Z,49.30
2023-03-19T16:11:30.448Z,40.55
2023-03-19T16:14:01.934Z,40.67
2023-03-19T16:16:34.659Z,38.58
2023-03-19T16:19:03.236Z,34.72
2023-03-19T16:21:37.179Z,31.85
2023-03-19T16:24:16.501Z,36.45
2023-03-19T16:26:46.996Z,30.15
2023-03-19T16:29:24.711Z,32.05
2023-03-19T16:31:55.381Z,28.90
2023-03-19T16:34:36.584Z,27.83
2023-03-19T16:37:43.506Z,29.33
2023-03-19T16:40:41.786Z,38.33
2023-03-19T16:43:18.167Z,39.88
2023-03-19T16:45:52.884Z,39.85
2023-03-19T16:48:21.379Z,41.15
2023-03-19T16:50:50.159Z,46.92
2023-03-19T16:53:25.703Z,39.13
2023-03-19T16:55:56.029Z,37.25
2023-03-19T16:58:31.377Z,38.00
2023-03-19T17:01:01.241Z,40.78
2023-03-19T17:03:30.219Z,37.42
2023-03-19T17:05:59.027Z,39.42
2023-03-19T17:08:27.772Z,38.35
2023-03-19T17:10:56.640Z,34.42
2023-03-19T17:13:29.829Z,30.02
2023-03-19T17:16:03.407Z,31.52
2023-03-19T17:18:36.466Z,24.25
2023-03-19T17:21:09.819Z,26.98
2023-03-19T17:23:38.521Z,30.65
2023-03-19T17:26:16.188Z,25.17
2023-03-19T17:28:44.682Z,27.30
2023-03-19T17:31:24.506Z,29.15
2023-03-19T17:33:53.938Z,29.98
2023-03-19T17:36:22.296Z,23.70
2023-03-19T17:38:50.727Z,25.95
2023-03-19T17:41:20.168Z,27.25
2023-03-19T17:43:49.251Z,26.00
2023-03-19T17:46:23.012Z,25.17
2023-03-19T17:48:52.435Z,25.75
2023-03-19T17:51:21.348Z,21.40
2023-03-19T17:53:52.562Z,21.48
2023-03-19T17:56:25.125Z,22.95
2023-03-19T17:58:54.109Z,30.17
2023-03-19T18:01:26.961Z,23.30
2023-03-19T18:03:57.725Z,36.85
2023-03-19T18:08:56.547Z,32.88
2023-03-19T18:11:25.081Z,25.85
2023-03-19T18:13:53.550Z,25.45
2023-03-19T18:16:28.243Z,23.05
2023-03-19T18:19:00.314Z,25.52
2023-03-19T18:21:29.040Z,24.13
2023-03-19T18:23:57.814Z,26.33
2023-03-19T18:26:26.457Z,23.80
2023-03-19T18:28:54.778Z,22.02
2023-03-19T18:31:26.765Z,18.20
2023-03-19T18:33:58.953Z,13.88
2023-03-19T18:36:31.377Z,13.98
2023-03-19T18:39:00.386Z,19.27
2023-03-19T18:41:30.027Z,14.30
2023-03-19T18:44:07.962Z,19.77
2023-03-19T18:46:39.858Z,14.85
2023-03-19T18:49:22.147Z,14.52
2023-03-19T18:52:02.140Z,14.68
2023-03-19T18:54:32.493Z,17.33
2023-03-19T18:57:02.040Z,17.70
2023-03-19T18:59:33.143Z,17.15
2023-03-19T19:02:13.019Z,14.70
2023-03-19T19:04:41.498Z,14.90
2023-03-19T19:07:11.530Z,16.58
2023-03-19T19:09:39.948Z,15.02
2023-03-19T19:12:09.581Z,17.25
2023-03-19T19:14:38.027Z,13.77
2023-03-19T19:17:08.143Z,14.13
2023-03-19T19:19:36.655Z,17.67
2023-03-19T19:22:05.062Z,20.15
2023-03-19T19:24:33.420Z,19.75
2023-03-19T19:27:01.801Z,18.52
2023-03-19T19:29:31.418Z,20.60
2023-03-19T19:32:00.631Z,24.65
2023-03-19T19:34:30.403Z,20.35
2023-03-19T19:37:00.409Z,23.90
2023-03-19T19:39:29.117Z,27.55
2023-03-19T19:41:57.489Z,24.60
2023-03-19T19:44:25.988Z,20.23
2023-03-19T19:46:55.218Z,17.65
2023-03-19T19:49:25.117Z,21.08
2023-03-19T19:51:54.978Z,19.83
2023-03-19T19:54:25.050Z,20.77
2023-03-19T19:56:53.611Z,22.00
2023-03-19T19:59:26.458Z,19.05
2023-03-19T20:01:54.984Z,18.65
2023-03-19T20:04:23.361Z,22.42
2023-03-19T20:06:52.052Z,20.90
2023-03-19T20:09:22.214Z,26.85
2023-03-19T20:11:50.797Z,22.20
2023-03-19T20:14:19.135Z,18.63
2023-03-19T20:16:48.687Z,20.80
2023-03-19T20:19:20.112Z,18.92
2023-03-19T20:21:48.571Z,19.83
2023-03-19T20:24:16.903Z,19.88
2023-03-19T20:26:46.690Z,22.83
2023-03-19T20:29:16.623Z,21.73
2023-03-19T20:31:47.797Z,16.92
2023-03-19T20:34:28.586Z,18.65
2023-03-19T20:37:05.003Z,21.13
2023-03-19T20:39:33.478Z,20.42
2023-03-19T20:42:03.276Z,23.10
2023-03-19T20:44:31.964Z,19.17
2023-03-19T20:47:00.632Z,14.73
2023-03-19T20:49:30.859Z,20.73
2023-03-19T20:51:59.243Z,20.40
2023-03-19T20:54:27.855Z,19.48
2023-03-19T20:56:56.315Z,16.60
2023-03-19T20:59:28.917Z,18.48
2023-03-19T21:01:57.556Z,17.95
2023-03-19T21:04:26.131Z,18.63
2023-03-19T21:06:54.612Z,19.35
2023-03-19T21:09:24.330Z,19.10
2023-03-19T21:11:53.243Z,25.23
2023-03-19T21:14:23.367Z,18.30
2023-03-19T21:16:53.234Z,22.30
2023-03-19T21:19:21.607Z,29.33
2023-03-19T21:21:50.148Z,29.42
2023-03-19T21:24:20.521Z,24.38
2023-03-19T21:26:49.388Z,27.30
2023-03-19T21:29:26.147Z,23.88
2023-03-19T21:31:57.874Z,29.70
2023-03-19T21:34:28.369Z,24.67
2023-03-19T21:36:56.734Z,22.23
2023-03-19T21:39:25.045Z,21.15
2023-03-19T21:41:53.498Z,20.50
2023-03-19T21:44:24.510Z,19.35
2023-03-19T21:46:53.176Z,22.30
2023-03-19T21:49:22.955Z,24.42
2023-03-19T21:51:51.284Z,20.03
2023-03-19T21:54:19.754Z,22.23
2023-03-19T21:56:48.290Z,19.38
2023-03-19T21:59:20.668Z,23.67
2023-03-19T22:01:49.266Z,20.65
2023-03-19T22:04:19.199Z,17.92
2023-03-19T22:06:49.638Z,19.30
2023-03-19T22:09:18.084Z,16.67
2023-03-19T22:11:46.480Z,18.05
2023-03-19T22:14:19.313Z,19.25
2023-03-19T22:16:52.368Z,21.55
2023-03-19T22:19:21.535Z,18.35
2023-03-19T22:21:51.339Z,19.45
2023-03-19T22:24:20.061Z,16.73
2023-03-19T22:26:52.125Z,17.23
2023-03-19T22:29:25.331Z,12.98
2023-03-19T22:31:55.544Z,14.65
2023-03-19T22:34:27.584Z,14.77
2023-03-19T22:36:57.510Z,14.60
2023-03-19T22:39:28.159Z,12.45
2023-03-19T22:44:29.460Z,15.18
2023-03-19T22:46:59.616Z,16.27
2023-03-19T22:49:29.995Z,16.20
2023-03-19T22:51:59.930Z,18.98
2023-03-19T22:54:28.367Z,16.42
2023-03-19T22:56:56.818Z,19.02
2023-03-19T22:59:25.441Z,18.67
2023-03-19T23:01:54.008Z,20.98
2023-03-19T23:04:25.474Z,18.20
2023-03-19T23:06:56.365Z,24.98
2023-03-19T23:11:57.876Z,21.80
2023-03-19T23:14:30.914Z,19.92
2023-03-19T23:17:03.329Z,26.77
2023-03-19T23:19:34.406Z,23.52
2023-03-19T23:22:05.157Z,23.20
2023-03-19T23:24:35.201Z,21.13
2023-03-19T23:27:04.263Z,22.75
2023-03-19T23:29:36.657Z,23.48
2023-03-19T23:32:05.963Z,25.58
2023-03-19T23:34:42.332Z,25.05
2023-03-19T23:37:14.293Z,25.20
2023-03-19T23:39:43.998Z,19.23
2023-03-19T23:42:25.325Z,23.37
2023-03-19T23:44:57.603Z,23.75
2023-03-19T23:47:26.293Z,25.35
2023-03-19T23:49:54.672Z,23.92
2023-03-19T23:52:22.988Z,21.00
2023-03-19T23:54:53.464Z,26.10
2023-03-19T23:57:26.529Z,24.40
2023-03-19T23:59:55.194Z,26.83
